Time;durP1;ratioP1;P1;durP2;ratioP2;P2;SDS_P1;SDS_P2;PMS_P1;PMS_P2;Temp;Humidity;BMP_temperature;BMP_pressure;BME280_temperature;BME280_humidity;BME280_pressure;Samples;Min_cycle;Max_cycle;Signal;HPM_P1;HPM_P2
2023/03/11 00:00:21;;;;;;;2.80;1.90;;;;;;;3.51;100.00;99495.31;5061494;28;20036;-76
2023/03/11 00:02:47;;;;;;;2.88;1.80;;;;;;;3.51;100.00;99544.72;5062463;28;20107;-76
2023/03/11 00:05:32;;;;;;;4.05;2.13;;;;;;;3.48;100.00;99539.78;5078066;28;20380;-76
2023/03/11 00:07:57;;;;;;;1.92;1.38;;;;;;;3.50;100.00;99543.06;5060955;28;20110;-76
2023/03/11 00:10:25;;;;;;;4.25;1.52;;;;;;;3.51;100.00;99566.69;5052147;28;20050;-76
2023/03/11 00:12:51;;;;;;;2.40;1.80;;;;;;;3.46;100.00;99580.41;5064682;28;20557;-76
2023/03/11 00:15:16;;;;;;;2.88;1.50;;;;;;;3.46;100.00;99592.22;5077761;28;20019;-76
2023/03/11 00:17:41;;;;;;;3.00;1.50;;;;;;;3.48;100.00;99590.03;5057740;28;20463;-76
2023/03/11 00:20:10;;;;;;;2.60;1.83;;;;;;;3.44;100.00;99591.66;5084491;28;20031;-76
2023/03/11 00:22:35;;;;;;;2.13;1.48;;;;;;;3.40;100.00;99586.97;5074428;28;20032;-76
2023/03/11 00:25:01;;;;;;;2.45;1.67;;;;;;;3.44;100.00;99571.63;5061018;28;20032;-76
2023/03/11 00:27:26;;;;;;;2.50;1.58;;;;;;;3.46;100.00;99564.75;5051706;27;20019;-76
2023/03/11 00:29:52;;;;;;;3.03;1.85;;;;;;;3.41;100.00;99594.13;5087099;28;20028;-76
2023/03/11 00:32:17;;;;;;;4.20;1.70;;;;;;;3.41;100.00;99611.41;5064067;28;20030;-76
2023/03/11 00:34:43;;;;;;;3.50;1.88;;;;;;;3.33;100.00;99637.44;5077668;28;20024;-76
2023/03/11 00:37:08;;;;;;;3.95;1.88;;;;;;;3.28;100.00;99642.09;5075254;28;20031;-76
2023/03/11 00:39:34;;;;;;;2.55;1.83;;;;;;;3.31;100.00;99644.28;5060226;28;20043;-76
2023/03/11 00:41:59;;;;;;;2.38;1.60;;;;;;;3.33;100.00;99634.69;5059614;28;20032;-76
2023/03/11 00:44:24;;;;;;;2.15;1.73;;;;;;;3.32;100.00;99611.09;5106337;27;20084;-76
2023/03/11 00:46:50;;;;;;;2.08;1.42;;;;;;;3.33;100.00;99603.69;5075785;27;20079;-76
2023/03/11 00:49:15;;;;;;;2.55;1.70;;;;;;;3.37;100.00;99624.00;5073119;27;20023;-76
2023/03/11 00:51:41;;;;;;;3.47;2.00;;;;;;;3.28;100.00;99628.34;5089815;27;20045;-76
2023/03/11 00:54:06;;;;;;;3.08;2.00;;;;;;;3.28;100.00;99626.44;5083869;27;20031;-76
2023/03/11 00:56:32;;;;;;;2.00;1.52;;;;;;;3.31;100.00;99623.16;5098854;28;20436;-76
2023/03/11 00:58:57;;;;;;;3.15;1.75;;;;;;;3.31;100.00;99579.25;5089593;28;20027;-76
2023/03/11 01:01:23;;;;;;;2.50;1.92;;;;;;;3.33;100.00;99568.81;5066744;27;20467;-76
2023/03/11 01:03:48;;;;;;;4.18;2.08;;;;;;;3.32;100.00;99572.69;5083284;27;20027;-76
2023/03/11 01:06:14;;;;;;;3.47;2.00;;;;;;;3.30;100.00;99585.84;5082985;28;20023;-76
2023/03/11 01:08:39;;;;;;;3.67;2.20;;;;;;;3.33;100.00;99565.25;5079079;28;20681;-76
2023/03/11 01:11:05;;;;;;;5.13;2.17;;;;;;;3.34;100.00;99561.41;5086810;28;20034;-76
2023/03/11 01:13:31;;;;;;;3.17;2.35;;;;;;;3.31;100.00;99567.44;5096499;28;20032;-76
2023/03/11 01:15:56;;;;;;;3.85;2.50;;;;;;;3.30;100.00;99550.16;5078010;28;20034;-76
2023/03/11 01:18:22;;;;;;;4.95;3.17;;;;;;;3.26;100.00;99554.56;5079536;28;20077;-76
2023/03/11 01:20:47;;;;;;;4.30;3.30;;;;;;;3.26;100.00;99581.13;5077180;28;20081;-76
2023/03/11 01:23:14;;;;;;;3.20;2.50;;;;;;;3.29;100.00;99589.69;5082830;28;20062;-76
2023/03/11 01:25:39;;;;;;;3.75;2.83;;;;;;;3.27;100.00;99571.84;5083499;28;20007;-76
2023/03/11 01:28:05;;;;;;;2.88;2.40;;;;;;;3.28;100.00;99600.91;5102314;27;20035;-76
2023/03/11 01:30:30;;;;;;;4.13;2.97;;;;;;;3.25;100.00;99596.78;5069598;27;20071;-76
2023/03/11 01:32:56;;;;;;;4.05;2.58;;;;;;;3.30;100.00;99599.56;5074713;27;20120;-75
2023/03/11 01:35:23;;;;;;;3.75;2.83;;;;;;;3.31;100.00;99595.72;5101106;27;20023;-76
2023/03/11 01:37:48;;;;;;;4.82;2.72;;;;;;;3.31;100.00;99603.94;5083537;28;20039;-75
2023/03/11 01:40:22;;;;;;;5.40;3.20;;;;;;;3.34;100.00;99592.44;5100763;27;20038;-76
2023/03/11 01:42:47;;;;;;;4.15;2.67;;;;;;;3.35;100.00;99574.06;5100110;28;20443;-76
2023/03/11 01:45:37;;;;;;;3.95;2.95;;;;;;;3.30;100.00;99574.84;5099135;27;20027;-76
2023/03/11 01:48:02;;;;;;;4.72;3.20;;;;;;;3.29;100.00;99564.16;5080204;28;20040;-75
2023/03/11 01:50:31;;;;;;;4.05;2.80;;;;;;;3.34;100.00;99558.66;5065482;28;20114;-75
2023/03/11 01:52:57;;;;;;;4.13;2.97;;;;;;;3.32;100.00;99553.47;5058583;28;20036;-76
2023/03/11 01:55:22;;;;;;;4.30;3.22;;;;;;;3.30;100.00;99555.66;5082539;28;20035;-76
2023/03/11 01:57:47;;;;;;;5.63;3.65;;;;;;;3.30;100.00;99544.66;5037519;28;20543;-76
2023/03/11 02:00:16;;;;;;;4.03;3.05;;;;;;;3.29;100.00;99548.53;5079599;28;20031;-76
2023/03/11 02:02:51;;;;;;;4.40;3.47;;;;;;;3.28;100.00;99544.09;5100172;28;20032;-76
2023/03/11 02:05:19;;;;;;;4.97;3.47;;;;;;;3.27;100.00;99541.66;5082681;28;20020;-76
2023/03/11 02:07:44;;;;;;;6.65;3.63;;;;;;;3.31;100.00;99534.50;5080689;28;20081;-76
2023/03/11 02:10:11;;;;;;;5.28;3.20;;;;;;;3.31;100.00;99526.28;5094034;27;20043;-76
2023/03/11 02:12:36;;;;;;;5.30;2.90;;;;;;;3.32;100.00;99534.25;5061080;28;20012;-76
2023/03/11 02:15:02;;;;;;;5.32;3.67;;;;;;;3.35;100.00;99544.69;5099835;28;20030;-76
2023/03/11 02:17:29;;;;;;;5.38;3.70;;;;;;;3.26;100.00;99546.31;5053695;27;20483;-76
2023/03/11 02:20:08;;;;;;;4.65;3.28;;;;;;;3.26;100.00;99535.34;5051060;28;20035;-75
2023/03/11 02:22:34;;;;;;;5.03;3.13;;;;;;;3.26;100.00;99520.78;5076586;28;20058;-75
2023/03/11 02:25:02;;;;;;;4.47;3.50;;;;;;;3.28;100.00;99540.53;5083078;28;20035;-75
2023/03/11 02:27:28;;;;;;;4.78;3.58;;;;;;;3.26;100.00;99538.09;5100046;28;20028;-76
2023/03/11 02:29:55;;;;;;;4.60;3.40;;;;;;;3.29;100.00;99540.28;5083173;28;20039;-76
2023/03/11 02:32:21;;;;;;;5.35;3.83;;;;;;;3.30;100.00;99533.69;5065940;28;20059;-76
2023/03/11 02:34:46;;;;;;;4.57;3.60;;;;;;;3.29;100.00;99532.06;5079167;28;20035;-76
2023/03/11 02:37:13;;;;;;;6.80;3.80;;;;;;;3.32;100.00;99520.53;5078310;28;20511;-76
2023/03/11 02:39:43;;;;;;;5.07;3.70;;;;;;;3.33;100.00;99526.84;5061274;28;20610;-76
2023/03/11 02:42:23;;;;;;;4.38;3.40;;;;;;;3.34;100.00;99536.72;5090640;27;20027;-76
2023/03/11 02:45:02;;;;;;;4.10;3.40;;;;;;;3.32;100.00;99536.19;5049624;28;20035;-76
2023/03/11 02:47:27;;;;;;;6.15;3.33;;;;;;;3.32;100.00;99526.03;5085702;28;20039;-76
2023/03/11 02:49:53;;;;;;;3.92;3.40;;;;;;;3.31;100.00;99529.03;5059739;28;20057;-75
2023/03/11 02:52:19;;;;;;;5.07;3.25;;;;;;;3.31;100.00;99532.59;5064340;28;20038;-76
2023/03/11 02:54:44;;;;;;;5.40;3.20;;;;;;;3.28;100.00;99526.81;5048067;28;20050;-75
2023/03/11 02:57:10;;;;;;;5.28;3.65;;;;;;;3.29;100.00;99510.09;5058982;28;20034;-75
2023/03/11 02:59:35;;;;;;;4.20;3.13;;;;;;;3.30;100.00;99481.56;5076406;28;20551;-76
2023/03/11 03:02:01;;;;;;;3.95;3.25;;;;;;;3.31;100.00;99496.91;5082253;28;20106;-75
2023/03/11 03:04:26;;;;;;;4.18;3.33;;;;;;;3.31;100.00;99526.28;5072772;28;20028;-76
2023/03/11 03:06:52;;;;;;;6.07;3.58;;;;;;;3.28;100.00;99532.31;5082175;28;20090;-76
2023/03/11 03:09:17;;;;;;;4.82;3.17;;;;;;;3.28;100.00;99546.84;5091743;28;20038;-76
2023/03/11 03:11:43;;;;;;;4.82;3.40;;;;;;;3.27;100.00;99563.59;5065264;28;20035;-76
2023/03/11 03:14:08;;;;;;;4.40;3.33;;;;;;;3.28;100.00;99566.06;5072672;28;20024;-76
2023/03/11 03:16:34;;;;;;;3.60;3.15;;;;;;;3.30;100.00;99571.28;5098959;28;20035;-76
2023/03/11 03:18:59;;;;;;;4.78;3.53;;;;;;;3.31;100.00;99550.97;5116849;28;20031;-76
2023/03/11 03:21:24;;;;;;;5.35;3.33;;;;;;;3.25;100.00;99508.97;5098393;28;20541;-76
2023/03/11 03:23:50;;;;;;;4.40;3.60;;;;;;;3.28;100.00;99555.09;5067555;28;20044;-76
2023/03/11 03:26:15;;;;;;;5.00;3.95;;;;;;;3.24;100.00;99592.41;5082135;28;20035;-76
2023/03/11 03:28:41;;;;;;;5.60;3.85;;;;;;;3.25;100.00;99613.25;5058802;28;20035;-76
2023/03/11 03:31:07;;;;;;;6.25;4.38;;;;;;;3.13;100.00;99632.69;5075829;28;20024;-76
2023/03/11 03:33:33;;;;;;;7.50;4.75;;;;;;;3.12;100.00;99635.69;5073883;28;20024;-76
2023/03/11 03:35:58;;;;;;;5.78;4.47;;;;;;;3.09;100.00;99609.63;5065070;28;20085;-76
2023/03/11 03:38:24;;;;;;;6.85;4.10;;;;;;;3.14;100.00;99619.78;5088632;28;20036;-76
2023/03/11 03:40:49;;;;;;;5.50;4.05;;;;;;;3.14;100.00;99622.53;5078633;28;20039;-76
2023/03/11 03:43:15;;;;;;;6.72;4.68;;;;;;;3.09;100.00;99623.34;5077582;28;20089;-76
2023/03/11 03:45:40;;;;;;;5.38;4.40;;;;;;;3.10;100.00;99613.19;5079984;28;20114;-76
2023/03/11 03:48:06;;;;;;;6.65;4.60;;;;;;;3.09;100.00;99604.16;5061017;28;20044;-76
2023/03/11 03:50:31;;;;;;;6.38;4.45;;;;;;;3.11;100.00;99592.88;5079272;28;20031;-76
2023/03/11 03:52:57;;;;;;;5.43;4.05;;;;;;;3.16;100.00;99575.63;5081001;28;20532;-76
2023/03/11 03:55:22;;;;;;;5.32;3.80;;;;;;;3.16;100.00;99565.47;5060729;28;20549;-76
2023/03/11 03:57:49;;;;;;;5.00;3.40;;;;;;;3.16;100.00;99560.00;5085529;28;20047;-76
2023/03/11 04:00:14;;;;;;;4.85;3.50;;;;;;;3.19;100.00;99570.44;5079593;28;20034;-76
2023/03/11 04:02:40;;;;;;;4.55;3.63;;;;;;;3.21;100.00;99554.53;5064136;28;20035;-76
2023/03/11 04:05:06;;;;;;;4.30;3.35;;;;;;;3.18;100.00;99574.28;5090369;28;20024;-76
2023/03/11 04:07:34;;;;;;;4.07;3.17;;;;;;;3.21;100.00;99595.69;5056434;28;20711;-76
2023/03/11 04:10:00;;;;;;;4.30;3.08;;;;;;;3.25;100.00;99590.47;5072346;28;20047;-76
2023/03/11 04:12:25;;;;;;;4.00;3.17;;;;;;;3.29;100.00;99588.88;5064293;28;20032;-76
2023/03/11 04:14:51;;;;;;;3.78;3.30;;;;;;;3.30;100.00;99590.50;5077767;28;20024;-76
2023/03/11 04:17:16;;;;;;;3.90;2.97;;;;;;;3.30;100.00;99574.84;5089253;28;20055;-76
2023/03/11 04:19:42;;;;;;;4.35;3.10;;;;;;;3.31;100.00;99521.59;5050473;28;20047;-76
2023/03/11 04:22:07;;;;;;;4.07;2.70;;;;;;;3.33;100.00;99537.81;5069685;28;20031;-76
2023/03/11 04:24:33;;;;;;;3.35;2.75;;;;;;;3.31;100.00;99546.31;5075860;28;20123;-76
2023/03/11 04:26:58;;;;;;;3.10;2.80;;;;;;;3.31;100.00;99543.56;5046972;28;20475;-76
2023/03/11 04:29:24;;;;;;;4.13;2.85;;;;;;;3.30;100.00;99544.66;5064174;28;20032;-76
2023/03/11 04:31:49;;;;;;;4.18;2.85;;;;;;;3.34;100.00;99551.28;5063962;28;20036;-76
2023/03/11 04:34:15;;;;;;;4.30;2.95;;;;;;;3.33;100.00;99546.06;5076829;28;20024;-76
2023/03/11 04:36:40;;;;;;;2.92;2.58;;;;;;;3.35;100.00;99528.22;5043737;28;20063;-76
2023/03/11 04:39:06;;;;;;;4.95;2.63;;;;;;;3.34;100.00;99523.00;5060020;28;20486;-76
2023/03/11 04:41:31;;;;;;;3.38;2.92;;;;;;;3.34;100.00;99533.97;5053065;27;20035;-76
2023/03/11 04:43:58;;;;;;;3.47;2.80;;;;;;;3.33;100.00;99546.88;5082597;28;20062;-76
2023/03/11 04:46:23;;;;;;;3.33;2.92;;;;;;;3.30;100.00;99547.41;5051618;28;20132;-76
2023/03/11 04:48:49;;;;;;;3.08;2.50;;;;;;;3.30;100.00;99549.34;5074792;28;20154;-76
2023/03/11 04:51:14;;;;;;;3.58;2.70;;;;;;;3.31;100.00;99556.47;5061061;28;20042;-75
2023/03/11 04:53:39;;;;;;;3.38;2.40;;;;;;;3.31;100.00;99546.31;5062864;28;20023;-76
2023/03/11 04:56:05;;;;;;;3.10;2.28;;;;;;;3.34;100.00;99551.28;5079545;28;20047;-76
2023/03/11 04:58:31;;;;;;;4.40;2.30;;;;;;;3.34;100.00;99551.28;5047956;28;20036;-76
2023/03/11 05:00:56;;;;;;;5.30;2.42;;;;;;;3.34;100.00;99544.94;5034025;28;20039;-76
2023/03/11 05:03:22;;;;;;;3.42;2.15;;;;;;;3.33;100.00;99546.06;5045865;28;20532;-75
2023/03/11 05:05:47;;;;;;;2.58;2.17;;;;;;;3.34;100.00;99539.47;5076667;28;20627;-76
2023/03/11 05:08:13;;;;;;;2.78;2.03;;;;;;;3.34;100.00;99551.28;5045379;28;20024;-76
2023/03/11 05:10:40;;;;;;;2.65;2.15;;;;;;;3.34;100.00;99556.78;5084488;28;20024;-75
2023/03/11 05:13:06;;;;;;;2.30;1.90;;;;;;;3.33;100.00;99552.34;5079305;28;20032;-76
2023/03/11 05:15:31;;;;;;;2.55;1.98;;;;;;;3.35;100.00;99558.41;5046823;28;20043;-76
2023/03/11 05:17:57;;;;;;;3.03;2.30;;;;;;;3.33;100.00;99563.34;5084292;28;20035;-76
2023/03/11 05:20:22;;;;;;;2.58;2.15;;;;;;;3.36;100.00;99557.31;5059728;28;20067;-76
2023/03/11 05:22:48;;;;;;;2.92;2.30;;;;;;;3.35;100.00;99566.66;5078966;28;20032;-75
2023/03/11 05:25:13;;;;;;;3.20;2.17;;;;;;;3.38;100.00;99569.97;5063401;28;20598;-76
2023/03/11 05:27:39;;;;;;;4.25;2.30;;;;;;;3.35;100.00;99563.91;5096864;28;20024;-76
2023/03/11 05:30:05;;;;;;;2.20;1.90;;;;;;;3.40;100.00;99567.75;5063714;28;20585;-76
2023/03/11 05:32:30;;;;;;;2.50;2.05;;;;;;;3.35;100.00;99563.91;5066034;28;20028;-76
2023/03/11 05:34:56;;;;;;;3.88;2.22;;;;;;;3.40;100.00;99567.75;5080008;28;20020;-76
2023/03/11 05:37:21;;;;;;;2.53;1.90;;;;;;;3.38;100.00;99559.78;5063284;28;20027;-75
2023/03/11 05:39:47;;;;;;;2.55;1.92;;;;;;;3.42;100.00;99571.06;5092854;28;20084;-76
2023/03/11 05:42:12;;;;;;;2.22;1.83;;;;;;;3.43;100.00;99572.72;5104737;28;20023;-76
2023/03/11 05:44:38;;;;;;;2.22;1.80;;;;;;;3.44;100.00;99571.63;5076707;28;20040;-75
2023/03/11 05:47:03;;;;;;;1.95;1.73;;;;;;;3.43;100.00;99572.72;5091214;28;20693;-76
2023/03/11 05:49:29;;;;;;;2.33;2.00;;;;;;;3.46;100.00;99578.50;5083404;28;20045;-75
2023/03/11 05:51:54;;;;;;;2.10;1.90;;;;;;;3.47;100.00;99573.81;5079198;28;20035;-76
2023/03/11 05:54:20;;;;;;;3.65;2.00;;;;;;;3.47;100.00;99591.09;5095995;28;20024;-75
2023/03/11 05:56:45;;;;;;;2.13;1.92;;;;;;;3.47;100.00;99598.53;5097724;28;20027;-76
2023/03/11 05:59:12;;;;;;;2.65;1.80;;;;;;;3.48;100.00;99601.00;5079049;28;20020;-76
2023/03/11 06:01:38;;;;;;;2.17;1.98;;;;;;;3.48;100.00;99612.00;5093243;28;20028;-76
2023/03/11 06:04:03;;;;;;;2.75;1.88;;;;;;;3.46;100.00;99614.19;5107173;28;20507;-76
2023/03/11 06:06:29;;;;;;;2.13;1.80;;;;;;;3.50;100.00;99614.44;5082590;28;20396;-75
2023/03/11 06:08:54;;;;;;;2.67;1.98;;;;;;;3.48;100.00;99609.25;5082292;28;20057;-76
2023/03/11 06:11:20;;;;;;;3.17;2.03;;;;;;;3.51;100.00;99596.88;5099211;28;20035;-76
2023/03/11 06:13:45;;;;;;;2.05;1.85;;;;;;;3.53;100.00;99602.94;5101767;27;20023;-76
2023/03/11 06:16:11;;;;;;;4.38;2.30;;;;;;;3.54;100.00;99601.84;5103207;27;20023;-76
2023/03/11 06:18:36;;;;;;;2.97;2.10;;;;;;;3.55;100.00;99601.56;5100056;28;20027;-76
2023/03/11 06:21:02;;;;;;;2.53;1.92;;;;;;;3.57;100.00;99599.38;5097615;28;20024;-76
2023/03/11 06:23:28;;;;;;;2.63;2.00;;;;;;;3.56;100.00;99600.47;5099796;28;20079;-76
2023/03/11 06:25:55;;;;;;;2.60;2.00;;;;;;;3.56;100.00;99597.72;5099770;28;20031;-76
2023/03/11 06:28:20;;;;;;;3.25;2.30;;;;;;;3.56;100.00;99592.22;5083022;28;20037;-76
2023/03/11 06:30:46;;;;;;;3.28;2.15;;;;;;;3.60;100.00;99586.22;5099705;28;20088;-76
2023/03/11 06:33:13;;;;;;;3.10;2.65;;;;;;;3.57;100.00;99590.31;5075405;27;20027;-76
2023/03/11 06:35:38;;;;;;;2.47;2.25;;;;;;;3.56;100.00;99596.91;5069166;27;20023;-76
2023/03/11 06:38:04;;;;;;;3.88;2.75;;;;;;;3.56;100.00;99602.38;5099436;28;20038;-76
2023/03/11 06:40:29;;;;;;;3.08;2.33;;;;;;;3.57;100.00;99609.56;5119378;27;20038;-76
2023/03/11 06:42:55;;;;;;;3.22;2.92;;;;;;;3.55;100.00;99614.47;5089971;28;20368;-76
2023/03/11 06:45:20;;;;;;;3.25;2.55;;;;;;;3.59;100.00;99626.56;5083993;27;20403;-76
2023/03/11 06:47:46;;;;;;;3.20;2.25;;;;;;;3.57;100.00;99623.28;5082294;28;20044;-76
2023/03/11 06:50:11;;;;;;;3.22;2.30;;;;;;;3.60;100.00;99625.47;5081484;27;20139;-76
2023/03/11 06:52:36;;;;;;;3.53;2.83;;;;;;;3.60;100.00;99620.00;5068556;27;20033;-76
2023/03/11 06:55:02;;;;;;;3.58;2.63;;;;;;;3.60;100.00;99616.44;5069011;27;20092;-76
2023/03/11 06:57:29;;;;;;;3.40;2.70;;;;;;;3.59;100.00;99610.09;5103080;27;20519;-76
2023/03/11 06:59:55;;;;;;;3.70;2.95;;;;;;;3.59;100.00;99604.59;5099273;28;20035;-76
2023/03/11 07:02:20;;;;;;;4.25;3.58;;;;;;;3.59;100.00;99601.84;5119387;27;20034;-76
2023/03/11 07:04:48;;;;;;;4.85;3.80;;;;;;;3.61;100.00;99610.66;5102179;27;20027;-76
2023/03/11 07:07:13;;;;;;;5.10;4.03;;;;;;;3.58;100.00;99608.44;5099544;28;20032;-76
2023/03/11 07:09:39;;;;;;;5.05;3.75;;;;;;;3.61;100.00;99607.06;5080765;28;20045;-76
2023/03/11 07:12:04;;;;;;;4.82;3.42;;;;;;;3.60;100.00;99608.19;5092927;27;20027;-76
2023/03/11 07:14:30;;;;;;;5.47;4.20;;;;;;;3.61;100.00;99609.81;5085223;27;20114;-76
2023/03/11 07:16:55;;;;;;;5.88;4.28;;;;;;;3.63;100.00;99607.66;5083758;27;20498;-76
2023/03/11 07:19:21;;;;;;;6.40;3.88;;;;;;;3.61;100.00;99607.91;5101869;27;20027;-76
2023/03/11 07:21:46;;;;;;;4.70;3.83;;;;;;;3.62;100.00;99616.97;5098750;28;20084;-76
2023/03/11 07:24:13;;;;;;;4.32;3.60;;;;;;;3.65;100.00;99622.75;5097930;28;20395;-76
2023/03/11 07:26:38;;;;;;;5.13;4.00;;;;;;;3.64;100.00;99610.09;5101755;27;20031;-76
2023/03/11 07:29:04;;;;;;;4.40;3.78;;;;;;;3.67;100.00;99620.53;5067699;27;20056;-76
2023/03/11 07:31:31;;;;;;;4.95;3.70;;;;;;;3.65;100.00;99611.78;5092142;28;20677;-76
2023/03/11 07:33:57;;;;;;;5.30;4.00;;;;;;;3.66;100.00;99607.09;5080276;27;20119;-76
2023/03/11 07:36:23;;;;;;;5.75;4.20;;;;;;;3.68;100.00;99611.22;5068233;27;20127;-76
2023/03/11 07:38:53;;;;;;;5.22;3.72;;;;;;;3.70;100.00;99613.69;5101168;27;20118;-76
2023/03/11 07:41:18;;;;;;;6.45;3.95;;;;;;;3.70;100.00;99613.69;5089431;27;20031;-76
2023/03/11 07:43:44;;;;;;;4.88;3.95;;;;;;;3.72;100.00;99626.06;5105057;27;20038;-76
2023/03/11 07:46:11;;;;;;;5.72;4.10;;;;;;;3.72;100.00;99622.50;5086905;28;20047;-76
2023/03/11 07:48:37;;;;;;;5.93;4.30;;;;;;;3.73;100.00;99624.13;5098042;27;20019;-76
2023/03/11 07:51:11;;;;;;;5.80;4.80;;;;;;;3.77;100.00;99631.56;5100730;27;20053;-76
2023/03/11 07:53:36;;;;;;;6.50;4.45;;;;;;;3.78;100.00;99637.88;5101280;27;20428;-76
2023/03/11 07:56:02;;;;;;;5.28;4.45;;;;;;;3.80;100.00;99635.69;5097634;28;20027;-76
2023/03/11 07:58:28;;;;;;;4.93;4.10;;;;;;;3.81;100.00;99638.16;5105945;28;20036;-76
2023/03/11 08:00:55;;;;;;;6.32;4.63;;;;;;;3.83;100.00;99639.81;5075995;27;20038;-76
2023/03/11 08:03:24;;;;;;;5.88;4.40;;;;;;;3.81;100.00;99640.91;5085062;27;20030;-76
2023/03/11 08:05:49;;;;;;;6.28;4.38;;;;;;;3.83;100.00;99645.31;5101328;27;20031;-76
2023/03/11 08:08:15;;;;;;;6.75;4.82;;;;;;;3.85;100.00;99654.13;5097896;27;20034;-76
2023/03/11 08:10:40;;;;;;;5.47;4.18;;;;;;;3.87;100.00;99654.66;5105624;27;20042;-76
2023/03/11 08:13:06;;;;;;;5.18;4.05;;;;;;;3.88;100.00;99661.81;5100783;27;20027;-76
2023/03/11 08:15:31;;;;;;;5.50;4.22;;;;;;;3.90;100.00;99657.72;5100603;27;20023;-76
2023/03/11 08:17:57;;;;;;;5.47;4.07;;;;;;;3.92;100.00;99668.41;5066849;27;20091;-76
2023/03/11 08:20:22;;;;;;;5.15;4.10;;;;;;;3.96;100.00;99673.09;5064265;28;20023;-76
2023/03/11 08:22:48;;;;;;;4.40;3.67;;;;;;;3.99;100.00;99674.47;5096834;28;20027;-76
2023/03/11 08:25:13;;;;;;;5.35;3.85;;;;;;;4.01;100.00;99675.88;5100462;27;20034;-76
2023/03/11 08:27:39;;;;;;;5.07;3.85;;;;;;;4.01;100.00;99684.09;5100238;27;20578;-76
2023/03/11 08:30:05;;;;;;;5.13;4.00;;;;;;;4.07;100.00;99684.94;5100367;27;20038;-76
2023/03/11 08:32:31;;;;;;;4.47;3.55;;;;;;;4.10;100.00;99680.84;5100882;27;20106;-76
2023/03/11 08:34:57;;;;;;;4.07;3.45;;;;;;;4.13;100.00;99689.34;5097045;28;20035;-76
2023/03/11 08:37:22;;;;;;;6.05;3.72;;;;;;;4.13;100.00;99696.78;5060164;28;20087;-76
2023/03/11 08:39:48;;;;;;;4.68;3.85;;;;;;;4.18;100.00;99697.63;5073893;27;20058;-76
2023/03/11 08:42:14;;;;;;;5.40;3.70;;;;;;;4.21;100.00;99708.06;5104511;28;20036;-76
2023/03/11 08:44:40;;;;;;;4.50;3.45;;;;;;;4.24;100.00;99702.00;5091315;27;20282;-76
2023/03/11 08:47:05;;;;;;;3.33;2.85;;;;;;;4.25;100.00;99702.84;5065722;27;20040;-76
2023/03/11 08:49:31;;;;;;;4.05;3.10;;;;;;;4.31;100.00;99706.41;5096683;28;20489;-76
2023/03/11 08:51:56;;;;;;;3.45;2.83;;;;;;;4.33;100.00;99704.22;5094341;27;20039;-76
2023/03/11 08:54:22;;;;;;;3.67;2.95;;;;;;;4.36;100.00;99709.19;5103545;28;20038;-76
2023/03/11 08:56:48;;;;;;;3.42;2.65;;;;;;;4.41;100.00;99709.19;5116246;27;20027;-76
2023/03/11 08:59:13;;;;;;;3.83;2.63;;;;;;;4.45;100.00;99713.03;5099109;28;20104;-76
2023/03/11 09:01:39;;;;;;;2.95;2.60;;;;;;;4.47;100.00;99708.91;5080239;28;20032;-77
2023/03/11 09:04:04;;;;;;;2.92;2.60;;;;;;;4.54;100.00;99721.56;5082132;28;20036;-76
2023/03/11 09:06:30;;;;;;;2.83;2.42;;;;;;;4.57;100.00;99727.38;5073551;28;20034;-76
2023/03/11 09:08:55;;;;;;;3.45;2.45;;;;;;;4.60;100.00;99721.31;5094485;28;20106;-76
2023/03/11 09:11:21;;;;;;;2.45;1.85;;;;;;;4.64;100.00;99722.41;5083588;28;20024;-76
2023/03/11 09:13:47;;;;;;;3.10;2.30;;;;;;;4.70;100.00;99725.97;5075559;28;20059;-76
2023/03/11 09:16:14;;;;;;;2.47;1.95;;;;;;;4.74;100.00;99731.78;5098968;28;20391;-76
2023/03/11 09:18:39;;;;;;;2.88;2.33;;;;;;;4.78;100.00;99732.88;5100323;27;20080;-76
2023/03/11 09:21:04;;;;;;;2.30;2.10;;;;;;;4.84;100.00;99731.75;5097185;28;20474;-76
2023/03/11 09:23:30;;;;;;;3.35;2.60;;;;;;;4.87;100.00;99729.28;5098998;28;20043;-76
2023/03/11 09:25:56;;;;;;;2.72;2.00;;;;;;;4.93;100.00;99724.59;5069101;28;20019;-76
2023/03/11 09:28:22;;;;;;;2.72;2.33;;;;;;;4.97;100.00;99725.72;5074153;28;20032;-76
2023/03/11 09:30:47;;;;;;;2.40;2.15;;;;;;;5.03;100.00;99726.53;5116329;28;20024;-76
2023/03/11 09:33:13;;;;;;;2.20;1.92;;;;;;;5.06;100.00;99726.78;5094651;27;20039;-76
2023/03/11 09:35:38;;;;;;;3.20;2.40;;;;;;;5.11;100.00;99740.56;5104118;28;20043;-76
2023/03/11 09:38:04;;;;;;;2.38;2.00;;;;;;;5.14;100.00;99753.75;5084266;28;20395;-76
2023/03/11 09:40:42;;;;;;;2.38;1.90;;;;;;;5.21;100.00;99753.50;5101267;27;20383;-76
2023/03/11 09:43:17;;;;;;;3.15;2.10;;;;;;;5.26;100.00;99749.91;5079775;28;20027;-76
2023/03/11 09:45:54;;;;;;;2.22;1.95;;;;;;;5.29;100.00;99752.09;5117434;28;20035;-76
2023/03/11 09:48:34;;;;;;;3.10;1.60;;;;;;;5.36;100.00;99747.13;5101826;27;20039;-76
2023/03/11 09:51:07;;;;;;;2.20;1.92;;;;;;;5.40;100.00;99750.97;5084384;28;20028;-76
2023/03/11 09:53:45;;;;;;;2.33;1.90;;;;;;;5.45;100.00;99739.13;5086295;27;20023;-76
2023/03/11 09:56:14;;;;;;;2.00;1.80;;;;;;;5.49;100.00;99749.31;5067445;28;20104;-76
2023/03/11 09:58:51;;;;;;;3.03;2.15;;;;;;;5.56;100.00;99746.25;5086548;27;20075;-76
2023/03/11 10:01:41;;;;;;;2.40;2.20;;;;;;;5.64;100.00;99734.69;5102726;27;20038;-76
2023/03/11 10:04:22;;;;;;;2.30;1.90;;;;;;;5.68;100.00;99729.41;5104201;27;20031;-76
2023/03/11 10:06:48;;;;;;;3.08;2.17;;;;;;;5.72;100.00;99736.03;5079922;28;20038;-76
2023/03/11 10:09:35;;;;;;;2.72;2.22;;;;;;;5.79;100.00;99747.56;5097683;27;20039;-76
2023/03/11 10:12:16;;;;;;;2.35;2.00;;;;;;;5.81;100.00;99743.41;5121243;27;20547;-76
2023/03/11 10:15:08;;;;;;;2.75;1.92;;;;;;;5.89;100.00;99747.53;5100109;28;20111;-76
2023/03/11 10:17:42;;;;;;;2.65;2.15;;;;;;;5.91;100.00;99745.34;5101468;27;20019;-76
2023/03/11 10:20:26;;;;;;;2.70;2.15;;;;;;;5.94;100.00;99733.78;5139509;27;20049;-76
2023/03/11 10:23:06;;;;;;;3.28;2.25;;;;;;;5.96;100.00;99736.22;5107629;27;20080;-76
2023/03/11 10:25:41;;;;;;;3.35;2.40;;;;;;;6.00;100.00;99746.41;5102962;27;20029;-76
2023/03/11 10:28:21;;;;;;;3.22;2.40;;;;;;;6.04;100.00;99738.41;5100019;28;20036;-76
2023/03/11 10:30:59;;;;;;;3.03;2.30;;;;;;;6.08;100.00;99736.75;5082976;28;20045;-76
2023/03/11 10:33:37;;;;;;;2.97;2.20;;;;;;;6.12;100.00;99748.84;5095513;27;20060;-76
2023/03/11 10:36:05;;;;;;;3.00;1.70;;;;;;;6.23;100.00;99752.38;5063766;27;20015;-76
2023/03/11 10:38:50;;;;;;;3.33;2.40;;;;;;;6.29;100.00;99751.22;5087147;27;20043;-76
2023/03/11 10:41:28;;;;;;;2.38;2.00;;;;;;;6.34;100.00;99748.44;5100104;27;20026;-76
2023/03/11 10:43:58;;;;;;;2.85;2.30;;;;;;;6.41;100.00;99754.50;5089136;27;20027;-76
2023/03/11 10:46:25;;;;;;;2.72;2.22;;;;;;;6.45;100.00;99761.06;5085843;27;20526;-76
2023/03/11 10:48:51;;;;;;;2.72;2.10;;;;;;;6.52;100.00;99751.66;5084347;28;20027;-77
2023/03/11 10:51:26;;;;;;;2.53;1.90;;;;;;;6.57;100.00;99748.84;5077134;27;20553;-76
2023/03/11 10:53:55;;;;;;;2.75;1.92;;;;;;;6.62;100.00;99757.94;5096217;28;20039;-76
2023/03/11 10:56:35;;;;;;;2.58;1.80;;;;;;;6.66;100.00;99749.91;5058256;27;20032;-76
2023/03/11 10:59:01;;;;;;;2.13;1.70;;;;;;;6.72;100.00;99759.81;5075367;28;20032;-76
2023/03/11 11:01:27;;;;;;;2.45;1.90;;;;;;;6.78;100.00;99766.94;5071782;27;20610;-76
2023/03/11 11:03:54;;;;;;;1.55;1.30;;;;;;;6.83;100.00;99761.38;5109061;27;20030;-76
2023/03/11 11:06:28;;;;;;;2.85;1.70;;;;;;;6.90;100.00;99756.34;5092186;27;20080;-76
2023/03/11 11:09:14;;;;;;;1.55;1.42;;;;;;;6.97;100.00;99758.78;5083028;27;20019;-76
2023/03/11 11:11:40;;;;;;;1.70;1.30;;;;;;;7.06;100.00;99764.50;5121640;27;20027;-76
2023/03/11 11:14:06;;;;;;;2.15;1.52;;;;;;;7.13;100.00;99757.56;5109261;27;20030;-76
2023/03/11 11:16:32;;;;;;;1.55;1.05;;;;;;;7.21;100.00;99769.06;5103195;27;20079;-77
2023/03/11 11:19:08;;;;;;;1.80;1.42;;;;;;;7.26;100.00;99755.22;5108564;27;20510;-76
2023/03/11 11:21:38;;;;;;;1.40;1.30;;;;;;;7.32;100.00;99752.09;5102653;27;20023;-76
2023/03/11 11:24:11;;;;;;;1.50;1.40;;;;;;;7.36;100.00;99749.59;5105533;27;20049;-76
2023/03/11 11:26:37;;;;;;;2.60;1.35;;;;;;;7.44;100.00;99761.94;5090221;27;20027;-76
2023/03/11 11:29:09;;;;;;;2.88;1.60;;;;;;;7.48;100.00;99755.56;5103887;28;20475;-76
2023/03/11 11:31:38;;;;;;;1.63;1.48;;;;;;;7.53;100.00;99758.25;5081066;27;20027;-76
2023/03/11 11:34:29;;;;;;;1.88;1.50;;;;;;;7.58;100.00;99760.97;5116677;27;20046;-76